Terminal Aerodrome Forecast
Issued by NWS Paducah, KY

Home | Current Version | Previous Version | Text Only | Print | Product List | Glossary On
Versions: 1 2 3 4 5 6 7 8 9 10 11 12 13 14 15 16 17 18 19 20
144
FTUS43 KPAH 270520
TAFPAH
TAF
KPAH 270520Z 2706/2806 10008G13KT P6SM VCSH BKN045 OVC130
     FM271000 18010G18KT 5SM -SHRA BR BKN012 OVC090
     FM271500 17013G23KT P6SM SCT035 BKN200
     FM272100 18010KT P6SM -SHRA BKN030=

USA.gov is the U.S. government's official web portal to all federal, state and local government web resources and services.